Terminal Aerodrome Forecast
Issued by NWS

Home | Current Version | Previous Version | Text Only | Print | Product List | Glossary On
Versions: 1 2 3 4 5 6 7 8 9 10 11 12 13 14
000
FTUS41 KBOX 031722
TAFACK
TAF
KACK 031722Z 0318/0418 05011KT 3SM SHRA BR OVC005
     FM032200 05013KT 3SM BR VCSH OVC003
     FM040400 04011KT 3SM BR OVC003
     FM041500 05014KT P6SM VCSH OVC008=

USA.gov is the U.S. government's official web portal to all federal, state and local government web resources and services.